sensor_id;sensor_type;location;lat;lon;timestamp;temperature;humidity
20291;DHT22;10304;51.074;13.754;2023-05-07T00:00:20;14.20;99.90
20291;DHT22;10304;51.074;13.754;2023-05-07T00:02:47;14.20;99.90
20291;DHT22;10304;51.074;13.754;2023-05-07T00:05:14;14.10;99.90
20291;DHT22;10304;51.074;13.754;2023-05-07T00:07:41;14.10;1.00
20291;DHT22;10304;51.074;13.754;2023-05-07T00:10:11;14.10;1.00
20291;DHT22;10304;51.074;13.754;2023-05-07T00:12:40;14.00;1.00
20291;DHT22;10304;51.074;13.754;2023-05-07T00:15:07;14.10;1.00
20291;DHT22;10304;51.074;13.754;2023-05-07T00:17:34;14.00;1.00
20291;DHT22;10304;51.074;13.754;2023-05-07T00:20:02;13.90;1.00
20291;DHT22;10304;51.074;13.754;2023-05-07T00:22:30;14.00;1.00
20291;DHT22;10304;51.074;13.754;2023-05-07T00:24:56;13.90;1.00
20291;DHT22;10304;51.074;13.754;2023-05-07T00:27:24;13.90;1.00
20291;DHT22;10304;51.074;13.754;2023-05-07T00:29:50;13.90;1.00
20291;DHT22;10304;51.074;13.754;2023-05-07T00:32:17;14.00;1.00
20291;DHT22;10304;51.074;13.754;2023-05-07T00:34:43;13.90;1.00
20291;DHT22;10304;51.074;13.754;2023-05-07T00:37:10;13.90;1.00
20291;DHT22;10304;51.074;13.754;2023-05-07T00:39:38;13.90;1.00
20291;DHT22;10304;51.074;13.754;2023-05-07T00:42:05;13.90;1.00
20291;DHT22;10304;51.074;13.754;2023-05-07T00:44:31;13.90;1.00
20291;DHT22;10304;51.074;13.754;2023-05-07T00:47:02;13.90;1.00
20291;DHT22;10304;51.074;13.754;2023-05-07T00:49:38;13.90;1.00
20291;DHT22;10304;51.074;13.754;2023-05-07T00:52:07;13.90;1.00
20291;DHT22;10304;51.074;13.754;2023-05-07T00:54:36;13.90;1.00
20291;DHT22;10304;51.074;13.754;2023-05-07T00:57:03;14.00;1.00
20291;DHT22;10304;51.074;13.754;2023-05-07T00:59:33;14.00;1.00
20291;DHT22;10304;51.074;13.754;2023-05-07T01:02:00;14.00;1.00
20291;DHT22;10304;51.074;13.754;2023-05-07T01:04:27;14.00;99.90
20291;DHT22;10304;51.074;13.754;2023-05-07T01:06:55;14.00;99.90
20291;DHT22;10304;51.074;13.754;2023-05-07T01:09:24;14.10;99.90
20291;DHT22;10304;51.074;13.754;2023-05-07T01:11:52;14.00;99.90
20291;DHT22;10304;51.074;13.754;2023-05-07T01:14:19;14.00;99.90
20291;DHT22;10304;51.074;13.754;2023-05-07T01:16:47;14.00;99.90
20291;DHT22;10304;51.074;13.754;2023-05-07T01:19:17;14.00;99.90
20291;DHT22;10304;51.074;13.754;2023-05-07T01:21:48;14.00;99.90
20291;DHT22;10304;51.074;13.754;2023-05-07T01:24:15;14.10;99.90
20291;DHT22;10304;51.074;13.754;2023-05-07T01:26:43;14.10;99.90
20291;DHT22;10304;51.074;13.754;2023-05-07T01:29:10;14.10;99.90
20291;DHT22;10304;51.074;13.754;2023-05-07T01:31:38;14.20;93.60
20291;DHT22;10304;51.074;13.754;2023-05-07T01:34:08;14.20;50.10
20291;DHT22;10304;51.074;13.754;2023-05-07T01:36:38;14.20;1.00
20291;DHT22;10304;51.074;13.754;2023-05-07T01:39:06;14.20;44.40
20291;DHT22;10304;51.074;13.754;2023-05-07T01:41:33;14.10;99.90
20291;DHT22;10304;51.074;13.754;2023-05-07T01:44:00;14.10;99.90
20291;DHT22;10304;51.074;13.754;2023-05-07T01:46:28;14.10;97.70
20291;DHT22;10304;51.074;13.754;2023-05-07T01:48:55;14.20;11.20
20291;DHT22;10304;51.074;13.754;2023-05-07T01:51:22;14.20;59.20
20291;DHT22;10304;51.074;13.754;2023-05-07T01:53:49;14.20;1.00
20291;DHT22;10304;51.074;13.754;2023-05-07T01:56:18;14.10;4.90
20291;DHT22;10304;51.074;13.754;2023-05-07T01:58:45;14.10;24.70
20291;DHT22;10304;51.074;13.754;2023-05-07T02:01:15;14.10;39.10
20291;DHT22;10304;51.074;13.754;2023-05-07T02:03:42;14.10;45.40
20291;DHT22;10304;51.074;13.754;2023-05-07T02:06:08;14.10;33.70
20291;DHT22;10304;51.074;13.754;2023-05-07T02:08:35;14.10;75.30
20291;DHT22;10304;51.074;13.754;2023-05-07T02:11:02;14.10;99.90
20291;DHT22;10304;51.074;13.754;2023-05-07T02:13:31;14.10;24.90
20291;DHT22;10304;51.074;13.754;2023-05-07T02:15:58;14.10;23.50
20291;DHT22;10304;51.074;13.754;2023-05-07T02:18:25;14.10;1.00
20291;DHT22;10304;51.074;13.754;2023-05-07T02:20:51;14.10;1.00
20291;DHT22;10304;51.074;13.754;2023-05-07T02:23:18;14.10;1.00
20291;DHT22;10304;51.074;13.754;2023-05-07T02:25:45;14.10;1.00
20291;DHT22;10304;51.074;13.754;2023-05-07T02:28:12;14.10;91.00
20291;DHT22;10304;51.074;13.754;2023-05-07T02:30:39;14.10;35.60
20291;DHT22;10304;51.074;13.754;2023-05-07T02:33:06;14.10;15.50
20291;DHT22;10304;51.074;13.754;2023-05-07T02:35:35;14.10;1.00
20291;DHT22;10304;51.074;13.754;2023-05-07T02:38:01;14.10;1.00
20291;DHT22;10304;51.074;13.754;2023-05-07T02:40:28;14.10;1.00
20291;DHT22;10304;51.074;13.754;2023-05-07T02:42:55;14.10;1.00
20291;DHT22;10304;51.074;13.754;2023-05-07T02:45:22;14.10;83.60
20291;DHT22;10304;51.074;13.754;2023-05-07T02:47:48;14.00;78.00
20291;DHT22;10304;51.074;13.754;2023-05-07T02:50:15;14.00;99.90
20291;DHT22;10304;51.074;13.754;2023-05-07T02:52:42;14.00;99.90
20291;DHT22;10304;51.074;13.754;2023-05-07T02:55:09;14.00;92.30
20291;DHT22;10304;51.074;13.754;2023-05-07T02:57:35;14.10;1.00
20291;DHT22;10304;51.074;13.754;2023-05-07T03:00:16;14.00;1.00
20291;DHT22;10304;51.074;13.754;2023-05-07T03:02:44;14.00;1.00
20291;DHT22;10304;51.074;13.754;2023-05-07T03:05:11;13.90;1.00
20291;DHT22;10304;51.074;13.754;2023-05-07T03:07:38;14.00;1.00
20291;DHT22;10304;51.074;13.754;2023-05-07T03:10:05;14.00;1.00
20291;DHT22;10304;51.074;13.754;2023-05-07T03:12:31;14.00;1.00
20291;DHT22;10304;51.074;13.754;2023-05-07T03:14:58;14.00;1.00
20291;DHT22;10304;51.074;13.754;2023-05-07T03:17:25;14.00;1.00
20291;DHT22;10304;51.074;13.754;2023-05-07T03:19:51;14.00;1.00
20291;DHT22;10304;51.074;13.754;2023-05-07T03:22:18;14.00;1.00
20291;DHT22;10304;51.074;13.754;2023-05-07T03:24:45;14.00;1.00
20291;DHT22;10304;51.074;13.754;2023-05-07T03:27:11;13.90;1.00
20291;DHT22;10304;51.074;13.754;2023-05-07T03:29:38;13.90;1.00
20291;DHT22;10304;51.074;13.754;2023-05-07T03:32:04;13.90;1.00
20291;DHT22;10304;51.074;13.754;2023-05-07T03:34:33;13.80;1.00
20291;DHT22;10304;51.074;13.754;2023-05-07T03:37:00;13.80;26.20
20291;DHT22;10304;51.074;13.754;2023-05-07T03:39:26;13.80;1.00
20291;DHT22;10304;51.074;13.754;2023-05-07T03:41:53;13.80;20.10
20291;DHT22;10304;51.074;13.754;2023-05-07T03:44:20;13.70;99.90
20291;DHT22;10304;51.074;13.754;2023-05-07T03:46:46;13.70;86.90
20291;DHT22;10304;51.074;13.754;2023-05-07T03:49:13;13.70;99.90
20291;DHT22;10304;51.074;13.754;2023-05-07T03:51:40;13.70;99.90
20291;DHT22;10304;51.074;13.754;2023-05-07T03:54:07;13.70;99.90
20291;DHT22;10304;51.074;13.754;2023-05-07T03:56:34;13.70;99.90
20291;DHT22;10304;51.074;13.754;2023-05-07T03:59:00;13.80;82.10
20291;DHT22;10304;51.074;13.754;2023-05-07T04:01:28;13.80;99.90
20291;DHT22;10304;51.074;13.754;2023-05-07T04:03:55;13.80;99.90
20291;DHT22;10304;51.074;13.754;2023-05-07T04:06:22;13.80;94.20
20291;DHT22;10304;51.074;13.754;2023-05-07T04:08:49;13.70;99.90
20291;DHT22;10304;51.074;13.754;2023-05-07T04:11:15;13.70;91.70
20291;DHT22;10304;51.074;13.754;2023-05-07T04:13:42;13.70;99.90
20291;DHT22;10304;51.074;13.754;2023-05-07T04:16:08;13.70;99.90
20291;DHT22;10304;51.074;13.754;2023-05-07T04:18:35;13.70;99.90
20291;DHT22;10304;51.074;13.754;2023-05-07T04:21:02;13.70;99.90
20291;DHT22;10304;51.074;13.754;2023-05-07T04:23:29;13.70;99.90
20291;DHT22;10304;51.074;13.754;2023-05-07T04:25:55;13.60;99.90
20291;DHT22;10304;51.074;13.754;2023-05-07T04:28:22;13.70;99.90
20291;DHT22;10304;51.074;13.754;2023-05-07T04:30:49;13.60;99.90
20291;DHT22;10304;51.074;13.754;2023-05-07T04:33:16;13.60;99.90
20291;DHT22;10304;51.074;13.754;2023-05-07T04:35:43;13.70;99.90
20291;DHT22;10304;51.074;13.754;2023-05-07T04:38:10;13.70;99.90
20291;DHT22;10304;51.074;13.754;2023-05-07T04:40:37;13.80;99.90
20291;DHT22;10304;51.074;13.754;2023-05-07T04:43:05;13.70;99.90
20291;DHT22;10304;51.074;13.754;2023-05-07T04:45:32;13.70;99.90
20291;DHT22;10304;51.074;13.754;2023-05-07T04:47:58;13.70;99.90
20291;DHT22;10304;51.074;13.754;2023-05-07T04:50:25;13.70;99.10
20291;DHT22;10304;51.074;13.754;2023-05-07T04:52:52;13.70;76.30
20291;DHT22;10304;51.074;13.754;2023-05-07T04:55:19;13.70;99.90
20291;DHT22;10304;51.074;13.754;2023-05-07T04:57:45;13.80;14.80
20291;DHT22;10304;51.074;13.754;2023-05-07T05:00:12;13.80;1.00
20291;DHT22;10304;51.074;13.754;2023-05-07T05:02:42;13.80;1.00
20291;DHT22;10304;51.074;13.754;2023-05-07T05:05:09;13.70;1.00
20291;DHT22;10304;51.074;13.754;2023-05-07T05:07:36;13.70;1.00
20291;DHT22;10304;51.074;13.754;2023-05-07T05:10:05;13.80;1.00
20291;DHT22;10304;51.074;13.754;2023-05-07T05:12:32;13.80;1.00
20291;DHT22;10304;51.074;13.754;2023-05-07T05:14:58;13.80;1.00
20291;DHT22;10304;51.074;13.754;2023-05-07T05:17:25;13.80;1.00
20291;DHT22;10304;51.074;13.754;2023-05-07T05:19:52;13.90;1.00
20291;DHT22;10304;51.074;13.754;2023-05-07T05:22:18;13.90;1.00
20291;DHT22;10304;51.074;13.754;2023-05-07T05:24:45;13.90;1.00
20291;DHT22;10304;51.074;13.754;2023-05-07T05:27:11;13.90;1.00
20291;DHT22;10304;51.074;13.754;2023-05-07T05:29:38;13.90;1.00
20291;DHT22;10304;51.074;13.754;2023-05-07T05:32:05;13.90;1.00
20291;DHT22;10304;51.074;13.754;2023-05-07T05:34:31;13.90;1.00
20291;DHT22;10304;51.074;13.754;2023-05-07T05:36:59;14.00;1.00
20291;DHT22;10304;51.074;13.754;2023-05-07T05:39:26;13.90;1.00
20291;DHT22;10304;51.074;13.754;2023-05-07T05:41:52;14.00;1.00
20291;DHT22;10304;51.074;13.754;2023-05-07T05:44:19;14.00;1.00
20291;DHT22;10304;51.074;13.754;2023-05-07T05:46:46;14.00;1.00
20291;DHT22;10304;51.074;13.754;2023-05-07T05:49:12;14.00;1.00
20291;DHT22;10304;51.074;13.754;2023-05-07T05:51:39;14.00;1.00
20291;DHT22;10304;51.074;13.754;2023-05-07T05:54:06;14.00;1.00
20291;DHT22;10304;51.074;13.754;2023-05-07T05:56:33;14.00;1.00
20291;DHT22;10304;51.074;13.754;2023-05-07T05:58:59;14.10;99.90
20291;DHT22;10304;51.074;13.754;2023-05-07T06:01:26;14.10;99.90
20291;DHT22;10304;51.074;13.754;2023-05-07T06:03:53;14.10;99.90
20291;DHT22;10304;51.074;13.754;2023-05-07T06:06:19;14.10;99.90
20291;DHT22;10304;51.074;13.754;2023-05-07T06:08:46;14.00;99.90
20291;DHT22;10304;51.074;13.754;2023-05-07T06:11:13;14.10;99.90
20291;DHT22;10304;51.074;13.754;2023-05-07T06:13:39;14.10;99.90
20291;DHT22;10304;51.074;13.754;2023-05-07T06:16:06;14.10;99.90
20291;DHT22;10304;51.074;13.754;2023-05-07T06:18:33;14.20;99.90
20291;DHT22;10304;51.074;13.754;2023-05-07T06:21:02;14.10;99.90
20291;DHT22;10304;51.074;13.754;2023-05-07T06:23:29;14.10;82.50
20291;DHT22;10304;51.074;13.754;2023-05-07T06:25:55;14.20;58.50
20291;DHT22;10304;51.074;13.754;2023-05-07T06:28:22;14.10;87.40
20291;DHT22;10304;51.074;13.754;2023-05-07T06:30:49;14.20;71.20
20291;DHT22;10304;51.074;13.754;2023-05-07T06:33:16;14.20;68.20
20291;DHT22;10304;51.074;13.754;2023-05-07T06:35:43;14.20;77.80
20291;DHT22;10304;51.074;13.754;2023-05-07T06:38:09;14.20;99.90
20291;DHT22;10304;51.074;13.754;2023-05-07T06:40:36;14.20;60.30
20291;DHT22;10304;51.074;13.754;2023-05-07T06:45:33;14.30;1.00
20291;DHT22;10304;51.074;13.754;2023-05-07T06:47:59;14.30;1.00
20291;DHT22;10304;51.074;13.754;2023-05-07T06:50:26;14.30;1.00
20291;DHT22;10304;51.074;13.754;2023-05-07T06:52:53;14.30;1.00
20291;DHT22;10304;51.074;13.754;2023-05-07T06:55:19;14.30;1.00
20291;DHT22;10304;51.074;13.754;2023-05-07T06:57:46;14.30;1.00
20291;DHT22;10304;51.074;13.754;2023-05-07T07:00:13;14.30;1.00
20291;DHT22;10304;51.074;13.754;2023-05-07T07:02:40;14.30;1.00
20291;DHT22;10304;51.074;13.754;2023-05-07T07:05:08;14.30;1.00
20291;DHT22;10304;51.074;13.754;2023-05-07T07:07:35;14.30;26.70
20291;DHT22;10304;51.074;13.754;2023-05-07T07:10:05;14.20;23.10
20291;DHT22;10304;51.074;13.754;2023-05-07T07:12:33;14.20;18.60
20291;DHT22;10304;51.074;13.754;2023-05-07T07:15:00;14.30;72.90
20291;DHT22;10304;51.074;13.754;2023-05-07T07:17:27;14.30;99.90
20291;DHT22;10304;51.074;13.754;2023-05-07T07:19:54;14.40;1.00
20291;DHT22;10304;51.074;13.754;2023-05-07T07:22:20;14.50;1.00
20291;DHT22;10304;51.074;13.754;2023-05-07T07:24:47;14.60;1.00
20291;DHT22;10304;51.074;13.754;2023-05-07T07:27:14;14.50;1.00
20291;DHT22;10304;51.074;13.754;2023-05-07T07:29:41;14.50;1.00
20291;DHT22;10304;51.074;13.754;2023-05-07T07:32:08;14.60;1.00
20291;DHT22;10304;51.074;13.754;2023-05-07T07:34:34;14.60;1.00
20291;DHT22;10304;51.074;13.754;2023-05-07T07:37:01;14.60;1.00
20291;DHT22;10304;51.074;13.754;2023-05-07T07:39:32;14.60;1.00
20291;DHT22;10304;51.074;13.754;2023-05-07T07:41:59;14.70;1.00
20291;DHT22;10304;51.074;13.754;2023-05-07T07:44:27;14.70;1.00
20291;DHT22;10304;51.074;13.754;2023-05-07T07:46:54;14.70;1.00
20291;DHT22;10304;51.074;13.754;2023-05-07T07:49:21;14.70;1.00
20291;DHT22;10304;51.074;13.754;2023-05-07T07:51:48;14.70;1.00
20291;DHT22;10304;51.074;13.754;2023-05-07T07:54:15;14.80;1.00
20291;DHT22;10304;51.074;13.754;2023-05-07T07:56:41;14.90;1.00
20291;DHT22;10304;51.074;13.754;2023-05-07T07:59:08;14.80;1.00
20291;DHT22;10304;51.074;13.754;2023-05-07T08:01:35;14.90;1.00
20291;DHT22;10304;51.074;13.754;2023-05-07T08:04:02;14.80;99.90
20291;DHT22;10304;51.074;13.754;2023-05-07T08:06:30;14.80;99.90
20291;DHT22;10304;51.074;13.754;2023-05-07T08:08:56;14.80;99.90
20291;DHT22;10304;51.074;13.754;2023-05-07T08:11:23;14.80;99.90
20291;DHT22;10304;51.074;13.754;2023-05-07T08:13:50;14.80;99.90
20291;DHT22;10304;51.074;13.754;2023-05-07T08:16:17;14.70;99.90
20291;DHT22;10304;51.074;13.754;2023-05-07T08:18:44;14.70;99.90
20291;DHT22;10304;51.074;13.754;2023-05-07T08:21:10;14.70;1.00
20291;DHT22;10304;51.074;13.754;2023-05-07T08:23:37;14.60;1.00
20291;DHT22;10304;51.074;13.754;2023-05-07T08:26:04;14.70;99.90
20291;DHT22;10304;51.074;13.754;2023-05-07T08:28:31;14.70;99.90
20291;DHT22;10304;51.074;13.754;2023-05-07T08:30:58;14.70;99.90
20291;DHT22;10304;51.074;13.754;2023-05-07T08:33:27;14.80;99.90
20291;DHT22;10304;51.074;13.754;2023-05-07T08:35:54;14.80;99.90
20291;DHT22;10304;51.074;13.754;2023-05-07T08:38:21;14.90;1.00
20291;DHT22;10304;51.074;13.754;2023-05-07T08:40:47;15.00;99.90
20291;DHT22;10304;51.074;13.754;2023-05-07T08:43:14;15.10;99.90
20291;DHT22;10304;51.074;13.754;2023-05-07T08:45:41;15.10;99.90
20291;DHT22;10304;51.074;13.754;2023-05-07T08:48:15;15.20;99.90
20291;DHT22;10304;51.074;13.754;2023-05-07T08:50:42;15.30;99.90
20291;DHT22;10304;51.074;13.754;2023-05-07T08:55:39;15.50;99.90
20291;DHT22;10304;51.074;13.754;2023-05-07T08:58:05;15.60;99.90
20291;DHT22;10304;51.074;13.754;2023-05-07T09:00:33;15.70;99.90
20291;DHT22;10304;51.074;13.754;2023-05-07T09:03:00;15.80;99.90
20291;DHT22;10304;51.074;13.754;2023-05-07T09:05:27;15.90;99.90
20291;DHT22;10304;51.074;13.754;2023-05-07T09:07:54;15.90;99.90
20291;DHT22;10304;51.074;13.754;2023-05-07T09:10:23;15.90;99.90
20291;DHT22;10304;51.074;13.754;2023-05-07T09:12:50;15.90;99.90
20291;DHT22;10304;51.074;13.754;2023-05-07T09:15:18;15.90;99.90
20291;DHT22;10304;51.074;13.754;2023-05-07T09:17:45;15.90;99.90
20291;DHT22;10304;51.074;13.754;2023-05-07T09:20:12;15.90;99.90
20291;DHT22;10304;51.074;13.754;2023-05-07T09:22:39;16.00;99.90
20291;DHT22;10304;51.074;13.754;2023-05-07T09:25:06;16.10;99.90
20291;DHT22;10304;51.074;13.754;2023-05-07T09:27:33;16.10;99.90
20291;DHT22;10304;51.074;13.754;2023-05-07T09:30:06;16.10;99.90
20291;DHT22;10304;51.074;13.754;2023-05-07T09:32:35;16.10;99.90
20291;DHT22;10304;51.074;13.754;2023-05-07T09:35:05;16.10;57.00
20291;DHT22;10304;51.074;13.754;2023-05-07T09:37:31;16.10;39.50
20291;DHT22;10304;51.074;13.754;2023-05-07T09:39:58;16.00;79.40
20291;DHT22;10304;51.074;13.754;2023-05-07T09:42:25;16.00;80.80
20291;DHT22;10304;51.074;13.754;2023-05-07T09:44:55;16.00;92.60
20291;DHT22;10304;51.074;13.754;2023-05-07T09:47:24;16.00;80.60
20291;DHT22;10304;51.074;13.754;2023-05-07T09:49:54;16.10;90.40
20291;DHT22;10304;51.074;13.754;2023-05-07T09:52:22;16.30;42.80
20291;DHT22;10304;51.074;13.754;2023-05-07T09:54:50;16.40;14.50
20291;DHT22;10304;51.074;13.754;2023-05-07T09:57:19;16.40;9.00
20291;DHT22;10304;51.074;13.754;2023-05-07T09:59:47;16.40;1.00
20291;DHT22;10304;51.074;13.754;2023-05-07T10:02:15;16.40;1.00
20291;DHT22;10304;51.074;13.754;2023-05-07T10:04:44;16.40;4.10
20291;DHT22;10304;51.074;13.754;2023-05-07T10:07:13;16.40;1.00
20291;DHT22;10304;51.074;13.754;2023-05-07T10:09:40;16.40;1.00
20291;DHT22;10304;51.074;13.754;2023-05-07T10:12:09;16.50;1.00
20291;DHT22;10304;51.074;13.754;2023-05-07T10:14:36;16.60;1.00
20291;DHT22;10304;51.074;13.754;2023-05-07T10:17:03;16.60;1.00
20291;DHT22;10304;51.074;13.754;2023-05-07T10:19:31;16.70;1.00
20291;DHT22;10304;51.074;13.754;2023-05-07T10:22:05;16.90;1.00
20291;DHT22;10304;51.074;13.754;2023-05-07T10:24:33;17.00;1.00
20291;DHT22;10304;51.074;13.754;2023-05-07T10:27:12;17.00;1.00
20291;DHT22;10304;51.074;13.754;2023-05-07T10:30:01;17.00;1.00
20291;DHT22;10304;51.074;13.754;2023-05-07T10:32:39;17.10;1.00
20291;DHT22;10304;51.074;13.754;2023-05-07T10:35:11;17.10;1.00
20291;DHT22;10304;51.074;13.754;2023-05-07T10:37:40;17.20;1.00
20291;DHT22;10304;51.074;13.754;2023-05-07T10:40:09;17.20;1.00
20291;DHT22;10304;51.074;13.754;2023-05-07T10:42:36;17.30;1.00
20291;DHT22;10304;51.074;13.754;2023-05-07T10:45:13;17.30;1.00
20291;DHT22;10304;51.074;13.754;2023-05-07T10:48:12;17.30;1.00
20291;DHT22;10304;51.074;13.754;2023-05-07T10:51:18;17.20;1.00
20291;DHT22;10304;51.074;13.754;2023-05-07T10:53:45;17.20;1.00
20291;DHT22;10304;51.074;13.754;2023-05-07T10:58:45;17.20;1.00
20291;DHT22;10304;51.074;13.754;2023-05-07T11:01:11;17.30;1.00
20291;DHT22;10304;51.074;13.754;2023-05-07T11:04:12;17.30;1.00
20291;DHT22;10304;51.074;13.754;2023-05-07T11:06:39;17.30;1.00
20291;DHT22;10304;51.074;13.754;2023-05-07T11:09:06;17.40;1.00
20291;DHT22;10304;51.074;13.754;2023-05-07T11:11:47;17.50;1.00
20291;DHT22;10304;51.074;13.754;2023-05-07T11:17:08;17.70;1.00
20291;DHT22;10304;51.074;13.754;2023-05-07T11:19:54;17.60;1.00
20291;DHT22;10304;51.074;13.754;2023-05-07T11:25:04;17.60;1.00
20291;DHT22;10304;51.074;13.754;2023-05-07T11:27:32;17.50;1.00
20291;DHT22;10304;51.074;13.754;2023-05-07T11:29:59;17.50;1.00
20291;DHT22;10304;51.074;13.754;2023-05-07T11:32:29;17.50;1.00
20291;DHT22;10304;51.074;13.754;2023-05-07T11:34:58;17.50;1.00
20291;DHT22;10304;51.074;13.754;2023-05-07T11:37:25;17.50;1.00
20291;DHT22;10304;51.074;13.754;2023-05-07T11:40:06;17.50;1.00
20291;DHT22;10304;51.074;13.754;2023-05-07T11:42:36;17.50;1.00
20291;DHT22;10304;51.074;13.754;2023-05-07T11:45:05;17.50;1.00
20291;DHT22;10304;51.074;13.754;2023-05-07T11:47:32;17.50;1.00
20291;DHT22;10304;51.074;13.754;2023-05-07T11:50:04;17.50;1.00
20291;DHT22;10304;51.074;13.754;2023-05-07T11:52:32;17.60;1.00
20291;DHT22;10304;51.074;13.754;2023-05-07T11:55:00;17.60;1.00
20291;DHT22;10304;51.074;13.754;2023-05-07T11:57:27;17.70;1.00
20291;DHT22;10304;51.074;13.754;2023-05-07T11:59:58;17.70;1.00
20291;DHT22;10304;51.074;13.754;2023-05-07T12:02:26;17.70;1.00
20291;DHT22;10304;51.074;13.754;2023-05-07T12:04:53;17.70;1.00
20291;DHT22;10304;51.074;13.754;2023-05-07T12:07:21;17.70;1.00
20291;DHT22;10304;51.074;13.754;2023-05-07T12:09:47;17.80;1.00
20291;DHT22;10304;51.074;13.754;2023-05-07T12:12:14;17.80;1.00
20291;DHT22;10304;51.074;13.754;2023-05-07T12:14:43;17.80;1.00
20291;DHT22;10304;51.074;13.754;2023-05-07T12:17:11;17.90;1.00
20291;DHT22;10304;51.074;13.754;2023-05-07T12:19:40;17.90;1.00
20291;DHT22;10304;51.074;13.754;2023-05-07T12:22:08;18.00;1.00
20291;DHT22;10304;51.074;13.754;2023-05-07T12:24:49;18.00;1.00
20291;DHT22;10304;51.074;13.754;2023-05-07T12:27:16;18.10;1.00
20291;DHT22;10304;51.074;13.754;2023-05-07T12:29:47;18.10;1.00
20291;DHT22;10304;51.074;13.754;2023-05-07T12:32:19;18.10;1.00
20291;DHT22;10304;51.074;13.754;2023-05-07T12:34:46;18.20;1.00
20291;DHT22;10304;51.074;13.754;2023-05-07T12:37:15;18.20;1.00
20291;DHT22;10304;51.074;13.754;2023-05-07T12:39:49;18.20;1.00
20291;DHT22;10304;51.074;13.754;2023-05-07T12:42:19;18.10;1.00
20291;DHT22;10304;51.074;13.754;2023-05-07T12:44:46;18.20;1.00
20291;DHT22;10304;51.074;13.754;2023-05-07T12:47:14;18.20;1.00
20291;DHT22;10304;51.074;13.754;2023-05-07T12:49:41;18.30;1.00
20291;DHT22;10304;51.074;13.754;2023-05-07T12:52:08;18.40;1.00
20291;DHT22;10304;51.074;13.754;2023-05-07T12:54:37;18.50;1.00
20291;DHT22;10304;51.074;13.754;2023-05-07T12:57:06;18.70;1.00
20291;DHT22;10304;51.074;13.754;2023-05-07T12:59:38;18.80;1.00
20291;DHT22;10304;51.074;13.754;2023-05-07T13:02:05;19.00;1.00
20291;DHT22;10304;51.074;13.754;2023-05-07T13:04:33;19.20;1.00
20291;DHT22;10304;51.074;13.754;2023-05-07T13:07:00;19.30;1.00
20291;DHT22;10304;51.074;13.754;2023-05-07T13:09:27;19.40;1.00
20291;DHT22;10304;51.074;13.754;2023-05-07T13:11:55;19.50;1.00
20291;DHT22;10304;51.074;13.754;2023-05-07T13:14:22;19.60;1.00
20291;DHT22;10304;51.074;13.754;2023-05-07T13:16:48;19.70;1.00
20291;DHT22;10304;51.074;13.754;2023-05-07T13:19:15;19.70;1.00
20291;DHT22;10304;51.074;13.754;2023-05-07T13:21:42;19.80;1.00
20291;DHT22;10304;51.074;13.754;2023-05-07T13:24:09;19.90;1.00
20291;DHT22;10304;51.074;13.754;2023-05-07T13:26:35;19.80;1.00
20291;DHT22;10304;51.074;13.754;2023-05-07T13:29:02;19.80;1.00
20291;DHT22;10304;51.074;13.754;2023-05-07T13:31:29;19.80;1.00
20291;DHT22;10304;51.074;13.754;2023-05-07T13:33:56;19.80;1.00
20291;DHT22;10304;51.074;13.754;2023-05-07T13:36:23;19.80;1.00
20291;DHT22;10304;51.074;13.754;2023-05-07T13:38:50;19.80;1.00
20291;DHT22;10304;51.074;13.754;2023-05-07T13:41:18;19.80;1.00
20291;DHT22;10304;51.074;13.754;2023-05-07T13:43:44;19.70;1.00
20291;DHT22;10304;51.074;13.754;2023-05-07T13:46:11;19.70;1.00
20291;DHT22;10304;51.074;13.754;2023-05-07T13:48:38;19.70;1.00
20291;DHT22;10304;51.074;13.754;2023-05-07T13:51:04;19.80;1.00
20291;DHT22;10304;51.074;13.754;2023-05-07T13:53:31;19.90;1.00
20291;DHT22;10304;51.074;13.754;2023-05-07T13:55:58;19.90;1.00
20291;DHT22;10304;51.074;13.754;2023-05-07T13:58:24;20.00;1.00
20291;DHT22;10304;51.074;13.754;2023-05-07T14:00:51;20.00;1.00
20291;DHT22;10304;51.074;13.754;2023-05-07T14:03:18;19.90;1.00
20291;DHT22;10304;51.074;13.754;2023-05-07T14:05:46;19.80;1.00
20291;DHT22;10304;51.074;13.754;2023-05-07T14:08:15;19.70;1.00
20291;DHT22;10304;51.074;13.754;2023-05-07T14:10:45;19.60;1.00
20291;DHT22;10304;51.074;13.754;2023-05-07T14:13:12;19.60;1.00
20291;DHT22;10304;51.074;13.754;2023-05-07T14:15:39;19.60;1.00
20291;DHT22;10304;51.074;13.754;2023-05-07T14:18:06;19.60;1.00
20291;DHT22;10304;51.074;13.754;2023-05-07T14:20:33;19.50;1.00
20291;DHT22;10304;51.074;13.754;2023-05-07T14:23:03;19.60;1.00
20291;DHT22;10304;51.074;13.754;2023-05-07T14:25:29;19.50;1.00
20291;DHT22;10304;51.074;13.754;2023-05-07T14:27:56;19.60;1.00
20291;DHT22;10304;51.074;13.754;2023-05-07T14:30:23;19.50;1.00
20291;DHT22;10304;51.074;13.754;2023-05-07T14:32:50;19.60;1.00
20291;DHT22;10304;51.074;13.754;2023-05-07T14:35:17;19.50;1.00
20291;DHT22;10304;51.074;13.754;2023-05-07T14:37:44;19.80;1.00
20291;DHT22;10304;51.074;13.754;2023-05-07T14:40:11;19.90;1.00
20291;DHT22;10304;51.074;13.754;2023-05-07T14:42:38;20.00;1.00
20291;DHT22;10304;51.074;13.754;2023-05-07T14:45:05;20.10;1.00
20291;DHT22;10304;51.074;13.754;2023-05-07T14:47:32;20.00;1.00
20291;DHT22;10304;51.074;13.754;2023-05-07T14:49:58;20.00;1.00
20291;DHT22;10304;51.074;13.754;2023-05-07T14:52:27;20.00;1.00
20291;DHT22;10304;51.074;13.754;2023-05-07T14:54:54;20.00;1.00
20291;DHT22;10304;51.074;13.754;2023-05-07T14:57:21;20.00;1.00
20291;DHT22;10304;51.074;13.754;2023-05-07T14:59:48;19.90;1.00
20291;DHT22;10304;51.074;13.754;2023-05-07T15:02:15;20.00;1.00
20291;DHT22;10304;51.074;13.754;2023-05-07T15:04:46;19.90;1.00
20291;DHT22;10304;51.074;13.754;2023-05-07T15:07:14;19.90;1.00
20291;DHT22;10304;51.074;13.754;2023-05-07T15:09:44;19.70;1.00
20291;DHT22;10304;51.074;13.754;2023-05-07T15:12:11;19.60;1.00
20291;DHT22;10304;51.074;13.754;2023-05-07T15:14:38;19.50;1.00
20291;DHT22;10304;51.074;13.754;2023-05-07T15:17:05;19.40;1.00
20291;DHT22;10304;51.074;13.754;2023-05-07T15:19:33;19.30;1.00
20291;DHT22;10304;51.074;13.754;2023-05-07T15:22:00;19.20;1.00
20291;DHT22;10304;51.074;13.754;2023-05-07T15:24:30;19.10;1.00
20291;DHT22;10304;51.074;13.754;2023-05-07T15:26:57;19.10;1.00
20291;DHT22;10304;51.074;13.754;2023-05-07T15:29:24;19.00;1.00
20291;DHT22;10304;51.074;13.754;2023-05-07T15:31:52;18.90;1.00
20291;DHT22;10304;51.074;13.754;2023-05-07T15:34:19;18.90;1.00
20291;DHT22;10304;51.074;13.754;2023-05-07T15:36:45;18.90;1.00
20291;DHT22;10304;51.074;13.754;2023-05-07T15:39:13;18.80;1.00
20291;DHT22;10304;51.074;13.754;2023-05-07T15:41:39;18.70;1.00